sensor_id;sensor_type;location;lat;lon;timestamp;pressure;altitude;pressure_sealevel;temperature;humidity
24230;BME280;12362;50.004;8.006;2022-07-04T00:01:59;100761.03;;;19.86;100.00
24230;BME280;12362;50.004;8.006;2022-07-04T00:04:25;100768.94;;;19.86;100.00
24230;BME280;12362;50.004;8.006;2022-07-04T00:06:51;100770.22;;;19.71;100.00
24230;BME280;12362;50.004;8.006;2022-07-04T00:09:17;100774.66;;;19.59;100.00
24230;BME280;12362;50.004;8.006;2022-07-04T00:11:42;100779.31;;;19.67;100.00
24230;BME280;12362;50.004;8.006;2022-07-04T00:14:08;100786.50;;;19.65;100.00
24230;BME280;12362;50.004;8.006;2022-07-04T00:16:33;100782.78;;;19.45;100.00
24230;BME280;12362;50.004;8.006;2022-07-04T00:18:59;100787.84;;;19.37;100.00
24230;BME280;12362;50.004;8.006;2022-07-04T00:21:25;100779.22;;;19.46;100.00
24230;BME280;12362;50.004;8.006;2022-07-04T00:23:51;100782.19;;;19.53;100.00
24230;BME280;12362;50.004;8.006;2022-07-04T00:26:16;100788.19;;;19.44;100.00
24230;BME280;12362;50.004;8.006;2022-07-04T00:28:42;100786.03;;;19.27;100.00
24230;BME280;12362;50.004;8.006;2022-07-04T00:31:08;100770.22;;;19.16;100.00
24230;BME280;12362;50.004;8.006;2022-07-04T00:33:33;100778.50;;;19.22;100.00
24230;BME280;12362;50.004;8.006;2022-07-04T00:35:58;100775.13;;;19.20;100.00
24230;BME280;12362;50.004;8.006;2022-07-04T00:38:24;100785.56;;;19.33;100.00
24230;BME280;12362;50.004;8.006;2022-07-04T00:40:49;100778.41;;;19.24;100.00
24230;BME280;12362;50.004;8.006;2022-07-04T00:43:22;100780.66;;;19.28;100.00
24230;BME280;12362;50.004;8.006;2022-07-04T00:45:48;100779.72;;;19.29;100.00
24230;BME280;12362;50.004;8.006;2022-07-04T00:48:14;100779.59;;;19.20;100.00
24230;BME280;12362;50.004;8.006;2022-07-04T00:50:41;100788.66;;;19.16;100.00
24230;BME280;12362;50.004;8.006;2022-07-04T00:53:07;100782.41;;;19.06;100.00
24230;BME280;12362;50.004;8.006;2022-07-04T00:55:33;100790.53;;;19.03;100.00
24230;BME280;12362;50.004;8.006;2022-07-04T00:57:59;100787.31;;;19.00;100.00
24230;BME280;12362;50.004;8.006;2022-07-04T01:00:24;100787.31;;;19.00;100.00
24230;BME280;12362;50.004;8.006;2022-07-04T01:02:50;100786.13;;;18.93;100.00
24230;BME280;12362;50.004;8.006;2022-07-04T01:05:15;100796.69;;;18.69;100.00
24230;BME280;12362;50.004;8.006;2022-07-04T01:07:42;100810.81;;;18.68;100.00
24230;BME280;12362;50.004;8.006;2022-07-04T01:10:08;100809.03;;;18.69;100.00
24230;BME280;12362;50.004;8.006;2022-07-04T01:12:34;100820.69;;;18.54;100.00
24230;BME280;12362;50.004;8.006;2022-07-04T01:15:01;100813.16;;;18.49;100.00
24230;BME280;12362;50.004;8.006;2022-07-04T01:17:26;100828.94;;;18.49;100.00
24230;BME280;12362;50.004;8.006;2022-07-04T01:19:52;100827.84;;;18.52;100.00
24230;BME280;12362;50.004;8.006;2022-07-04T01:22:17;100829.28;;;18.45;100.00
24230;BME280;12362;50.004;8.006;2022-07-04T01:24:44;100830.31;;;18.42;100.00
24230;BME280;12362;50.004;8.006;2022-07-04T01:27:09;100834.75;;;18.42;100.00
24230;BME280;12362;50.004;8.006;2022-07-04T01:29:35;100836.31;;;18.44;100.00
24230;BME280;12362;50.004;8.006;2022-07-04T01:32:08;100833.41;;;18.36;100.00
24230;BME280;12362;50.004;8.006;2022-07-04T01:34:34;100831.19;;;18.43;100.00
24230;BME280;12362;50.004;8.006;2022-07-04T01:37:00;100846.34;;;18.39;100.00
24230;BME280;12362;50.004;8.006;2022-07-04T01:39:29;100837.13;;;18.34;100.00
24230;BME280;12362;50.004;8.006;2022-07-04T01:41:55;100837.81;;;18.36;100.00
24230;BME280;12362;50.004;8.006;2022-07-04T01:44:21;100843.88;;;18.26;100.00
24230;BME280;12362;50.004;8.006;2022-07-04T01:46:46;100847.16;;;18.17;100.00
24230;BME280;12362;50.004;8.006;2022-07-04T01:49:12;100849.81;;;18.04;100.00
24230;BME280;12362;50.004;8.006;2022-07-04T01:51:45;100853.19;;;18.06;100.00
24230;BME280;12362;50.004;8.006;2022-07-04T01:54:10;100858.38;;;18.19;100.00
24230;BME280;12362;50.004;8.006;2022-07-04T01:56:36;100862.19;;;18.15;100.00
24230;BME280;12362;50.004;8.006;2022-07-04T01:59:01;100867.00;;;18.21;100.00
24230;BME280;12362;50.004;8.006;2022-07-04T02:01:29;100866.59;;;18.14;100.00
24230;BME280;12362;50.004;8.006;2022-07-04T02:03:54;100869.28;;;18.02;100.00
24230;BME280;12362;50.004;8.006;2022-07-04T02:06:20;100874.41;;;18.03;100.00
24230;BME280;12362;50.004;8.006;2022-07-04T02:08:45;100873.91;;;17.98;100.00
24230;BME280;12362;50.004;8.006;2022-07-04T02:11:29;100878.84;;;17.90;100.00
24230;BME280;12362;50.004;8.006;2022-07-04T02:14:14;100890.19;;;17.55;100.00
24230;BME280;12362;50.004;8.006;2022-07-04T02:16:40;100895.00;;;17.48;100.00
24230;BME280;12362;50.004;8.006;2022-07-04T02:19:05;100894.38;;;17.45;100.00
24230;BME280;12362;50.004;8.006;2022-07-04T02:21:30;100895.22;;;17.58;100.00
24230;BME280;12362;50.004;8.006;2022-07-04T02:23:56;100900.91;;;17.64;100.00
24230;BME280;12362;50.004;8.006;2022-07-04T02:26:22;100904.47;;;17.63;100.00
24230;BME280;12362;50.004;8.006;2022-07-04T02:28:47;100902.34;;;17.68;100.00
24230;BME280;12362;50.004;8.006;2022-07-04T02:31:12;100904.34;;;17.65;100.00
24230;BME280;12362;50.004;8.006;2022-07-04T02:33:38;100906.97;;;17.40;100.00
24230;BME280;12362;50.004;8.006;2022-07-04T02:36:03;100907.66;;;17.17;100.00
24230;BME280;12362;50.004;8.006;2022-07-04T02:38:29;100902.66;;;17.27;100.00
24230;BME280;12362;50.004;8.006;2022-07-04T02:40:54;100902.25;;;17.33;100.00
24230;BME280;12362;50.004;8.006;2022-07-04T02:43:20;100909.72;;;17.38;100.00
24230;BME280;12362;50.004;8.006;2022-07-04T02:45:45;100903.00;;;17.34;100.00
24230;BME280;12362;50.004;8.006;2022-07-04T02:48:11;100895.50;;;17.16;100.00
24230;BME280;12362;50.004;8.006;2022-07-04T02:50:36;100897.72;;;17.22;100.00
24230;BME280;12362;50.004;8.006;2022-07-04T02:53:02;100899.38;;;17.23;100.00
24230;BME280;12362;50.004;8.006;2022-07-04T02:55:27;100895.19;;;17.21;100.00
24230;BME280;12362;50.004;8.006;2022-07-04T02:57:52;100899.09;;;17.28;100.00
24230;BME280;12362;50.004;8.006;2022-07-04T03:00:18;100895.50;;;17.29;100.00
24230;BME280;12362;50.004;8.006;2022-07-04T03:02:43;100895.31;;;17.32;100.00
24230;BME280;12362;50.004;8.006;2022-07-04T03:05:09;100896.47;;;17.40;100.00
24230;BME280;12362;50.004;8.006;2022-07-04T03:07:34;100896.34;;;17.41;100.00
24230;BME280;12362;50.004;8.006;2022-07-04T03:09:59;100903.28;;;17.42;100.00
24230;BME280;12362;50.004;8.006;2022-07-04T03:12:25;100904.34;;;17.40;100.00
24230;BME280;12362;50.004;8.006;2022-07-04T03:14:50;100900.91;;;17.39;100.00
24230;BME280;12362;50.004;8.006;2022-07-04T03:17:16;100910.03;;;17.46;100.00
24230;BME280;12362;50.004;8.006;2022-07-04T03:19:41;100904.34;;;17.40;100.00
24230;BME280;12362;50.004;8.006;2022-07-04T03:22:06;100907.91;;;17.39;100.00
24230;BME280;12362;50.004;8.006;2022-07-04T03:24:32;100912.41;;;17.25;100.00
24230;BME280;12362;50.004;8.006;2022-07-04T03:26:57;100909.50;;;17.41;100.00
24230;BME280;12362;50.004;8.006;2022-07-04T03:29:22;100906.75;;;17.55;100.00
24230;BME280;12362;50.004;8.006;2022-07-04T03:31:48;100896.88;;;17.59;100.00
24230;BME280;12362;50.004;8.006;2022-07-04T03:34:13;100900.78;;;17.66;100.00
24230;BME280;12362;50.004;8.006;2022-07-04T03:36:39;100903.72;;;17.61;100.00
24230;BME280;12362;50.004;8.006;2022-07-04T03:39:04;100905.94;;;17.55;100.00
24230;BME280;12362;50.004;8.006;2022-07-04T03:41:30;100906.69;;;17.57;100.00
24230;BME280;12362;50.004;8.006;2022-07-04T03:43:55;100906.88;;;17.54;100.00
24230;BME280;12362;50.004;8.006;2022-07-04T03:46:20;100906.69;;;17.57;100.00
24230;BME280;12362;50.004;8.006;2022-07-04T03:48:46;100907.81;;;17.53;100.00
24230;BME280;12362;50.004;8.006;2022-07-04T03:51:12;100913.47;;;17.47;100.00
24230;BME280;12362;50.004;8.006;2022-07-04T03:53:37;100921.47;;;17.45;100.00
24230;BME280;12362;50.004;8.006;2022-07-04T03:56:03;100924.59;;;17.26;100.00
24230;BME280;12362;50.004;8.006;2022-07-04T03:58:29;100928.16;;;17.25;100.00
24230;BME280;12362;50.004;8.006;2022-07-04T04:00:54;100929.03;;;17.37;100.00
24230;BME280;12362;50.004;8.006;2022-07-04T04:03:19;100928.28;;;17.48;100.00
24230;BME280;12362;50.004;8.006;2022-07-04T04:06:03;100931.88;;;17.59;100.00
24230;BME280;12362;50.004;8.006;2022-07-04T04:08:29;100927.78;;;17.68;100.00
24230;BME280;12362;50.004;8.006;2022-07-04T04:10:54;100936.81;;;17.64;100.00
24230;BME280;12362;50.004;8.006;2022-07-04T04:13:19;100929.25;;;17.59;100.00
24230;BME280;12362;50.004;8.006;2022-07-04T04:15:45;100940.06;;;17.67;100.00
24230;BME280;12362;50.004;8.006;2022-07-04T04:18:10;100929.66;;;17.78;100.00
24230;BME280;12362;50.004;8.006;2022-07-04T04:20:35;100930.72;;;17.76;100.00
24230;BME280;12362;50.004;8.006;2022-07-04T04:23:01;100938.16;;;17.69;100.00
24230;BME280;12362;50.004;8.006;2022-07-04T04:25:26;100934.94;;;17.66;100.00
24230;BME280;12362;50.004;8.006;2022-07-04T04:27:52;100927.25;;;17.75;100.00
24230;BME280;12362;50.004;8.006;2022-07-04T04:30:17;100922.41;;;17.82;100.00
24230;BME280;12362;50.004;8.006;2022-07-04T04:32:42;100936.81;;;17.76;100.00
24230;BME280;12362;50.004;8.006;2022-07-04T04:35:08;100930.06;;;17.85;100.00
24230;BME280;12362;50.004;8.006;2022-07-04T04:37:33;100934.56;;;17.83;100.00
24230;BME280;12362;50.004;8.006;2022-07-04T04:39:59;100934.50;;;17.84;100.00
24230;BME280;12362;50.004;8.006;2022-07-04T04:42:24;100941.19;;;17.88;100.00
24230;BME280;12362;50.004;8.006;2022-07-04T04:44:49;100942.13;;;18.00;100.00
24230;BME280;12362;50.004;8.006;2022-07-04T04:47:15;100949.47;;;18.07;100.00
24230;BME280;12362;50.004;8.006;2022-07-04T04:49:40;100945.13;;;18.19;100.00
24230;BME280;12362;50.004;8.006;2022-07-04T04:52:06;100939.78;;;18.20;100.00
24230;BME280;12362;50.004;8.006;2022-07-04T04:54:33;100942.94;;;18.25;100.00
24230;BME280;12362;50.004;8.006;2022-07-04T04:56:59;100945.88;;;18.33;100.00
24230;BME280;12362;50.004;8.006;2022-07-04T04:59:24;100955.72;;;18.42;100.00
24230;BME280;12362;50.004;8.006;2022-07-04T05:01:49;100956.69;;;18.41;100.00
24230;BME280;12362;50.004;8.006;2022-07-04T05:04:15;100948.25;;;18.48;100.00
24230;BME280;12362;50.004;8.006;2022-07-04T05:06:40;100959.84;;;18.46;100.00
24230;BME280;12362;50.004;8.006;2022-07-04T05:09:06;100964.41;;;18.55;100.00
24230;BME280;12362;50.004;8.006;2022-07-04T05:11:31;100957.53;;;18.65;100.00
24230;BME280;12362;50.004;8.006;2022-07-04T05:13:57;100959.50;;;18.74;100.00
24230;BME280;12362;50.004;8.006;2022-07-04T05:16:22;100955.56;;;18.79;100.00
24230;BME280;12362;50.004;8.006;2022-07-04T05:18:48;100961.22;;;18.86;100.00
24230;BME280;12362;50.004;8.006;2022-07-04T05:21:13;100962.16;;;18.85;100.00
24230;BME280;12362;50.004;8.006;2022-07-04T05:23:38;100966.13;;;18.90;100.00
24230;BME280;12362;50.004;8.006;2022-07-04T05:26:04;100960.22;;;18.99;100.00
24230;BME280;12362;50.004;8.006;2022-07-04T05:28:29;100956.59;;;19.13;100.00
24230;BME280;12362;50.004;8.006;2022-07-04T05:30:54;100960.19;;;19.22;100.00
24230;BME280;12362;50.004;8.006;2022-07-04T05:33:20;100955.06;;;19.21;100.00
24230;BME280;12362;50.004;8.006;2022-07-04T05:35:45;100957.78;;;19.19;100.00
24230;BME280;12362;50.004;8.006;2022-07-04T05:38:10;100960.34;;;19.32;100.00
24230;BME280;12362;50.004;8.006;2022-07-04T05:40:36;100966.50;;;19.54;100.00
24230;BME280;12362;50.004;8.006;2022-07-04T05:43:04;100959.69;;;19.63;100.00
24230;BME280;12362;50.004;8.006;2022-07-04T05:45:29;100954.78;;;19.58;100.00
24230;BME280;12362;50.004;8.006;2022-07-04T05:47:55;100956.00;;;19.65;100.00
24230;BME280;12362;50.004;8.006;2022-07-04T05:50:20;100965.81;;;19.63;100.00
24230;BME280;12362;50.004;8.006;2022-07-04T05:52:45;100959.59;;;19.64;100.00
24230;BME280;12362;50.004;8.006;2022-07-04T05:55:11;100966.28;;;19.68;100.00
24230;BME280;12362;50.004;8.006;2022-07-04T05:57:36;100959.47;;;19.66;100.00
24230;BME280;12362;50.004;8.006;2022-07-04T06:00:03;100963.28;;;19.73;100.00
24230;BME280;12362;50.004;8.006;2022-07-04T06:02:28;100959.25;;;19.91;100.00
24230;BME280;12362;50.004;8.006;2022-07-04T06:04:54;100952.22;;;20.13;100.00
24230;BME280;12362;50.004;8.006;2022-07-04T06:07:19;100947.59;;;20.26;100.00
24230;BME280;12362;50.004;8.006;2022-07-04T06:09:44;100957.47;;;20.24;100.00
24230;BME280;12362;50.004;8.006;2022-07-04T06:12:11;100948.28;;;20.50;100.00
24230;BME280;12362;50.004;8.006;2022-07-04T06:14:36;100955.53;;;20.79;97.08
24230;BME280;12362;50.004;8.006;2022-07-04T06:17:01;100952.00;;;21.21;93.67
24230;BME280;12362;50.004;8.006;2022-07-04T06:19:27;100949.94;;;21.45;90.35
24230;BME280;12362;50.004;8.006;2022-07-04T06:21:53;100951.25;;;21.71;89.93
24230;BME280;12362;50.004;8.006;2022-07-04T06:24:22;100944.22;;;22.20;88.55
24230;BME280;12362;50.004;8.006;2022-07-04T06:26:48;100947.81;;;22.49;89.55
24230;BME280;12362;50.004;8.006;2022-07-04T06:29:13;100949.25;;;22.91;80.81
24230;BME280;12362;50.004;8.006;2022-07-04T06:31:40;100944.50;;;22.75;79.23
24230;BME280;12362;50.004;8.006;2022-07-04T06:34:05;100945.63;;;23.10;76.75
24230;BME280;12362;50.004;8.006;2022-07-04T06:36:49;100932.00;;;23.15;77.75
24230;BME280;12362;50.004;8.006;2022-07-04T06:39:15;100930.28;;;23.33;74.74
24230;BME280;12362;50.004;8.006;2022-07-04T06:41:40;100935.13;;;23.56;75.10
24230;BME280;12362;50.004;8.006;2022-07-04T06:44:06;100923.03;;;24.34;73.96
24230;BME280;12362;50.004;8.006;2022-07-04T06:46:31;100909.78;;;24.34;66.66
24230;BME280;12362;50.004;8.006;2022-07-04T06:48:57;100912.88;;;24.91;63.25
24230;BME280;12362;50.004;8.006;2022-07-04T06:51:23;100908.09;;;24.95;60.77
24230;BME280;12362;50.004;8.006;2022-07-04T06:53:48;100907.97;;;25.14;62.84
24230;BME280;12362;50.004;8.006;2022-07-04T06:56:14;100897.84;;;25.00;64.15
24230;BME280;12362;50.004;8.006;2022-07-04T06:58:40;100899.88;;;25.49;61.89
24230;BME280;12362;50.004;8.006;2022-07-04T07:01:06;100891.31;;;25.88;56.59
24230;BME280;12362;50.004;8.006;2022-07-04T07:03:31;100889.59;;;25.28;59.85
24230;BME280;12362;50.004;8.006;2022-07-04T07:05:57;100883.72;;;25.42;57.21
24230;BME280;12362;50.004;8.006;2022-07-04T07:08:22;100881.81;;;25.60;55.51
24230;BME280;12362;50.004;8.006;2022-07-04T07:10:48;100883.00;;;26.32;54.20
24230;BME280;12362;50.004;8.006;2022-07-04T07:13:15;100880.34;;;26.40;53.64
24230;BME280;12362;50.004;8.006;2022-07-04T07:15:41;100867.69;;;26.34;52.33
24230;BME280;12362;50.004;8.006;2022-07-04T07:18:07;100871.38;;;26.49;55.17
24230;BME280;12362;50.004;8.006;2022-07-04T07:20:32;100869.94;;;26.86;50.00
24230;BME280;12362;50.004;8.006;2022-07-04T07:22:58;100868.56;;;27.30;48.43
24230;BME280;12362;50.004;8.006;2022-07-04T07:25:23;100872.06;;;27.39;49.62
24230;BME280;12362;50.004;8.006;2022-07-04T07:27:49;100864.63;;;27.80;47.37
24230;BME280;12362;50.004;8.006;2022-07-04T07:30:15;100870.06;;;28.33;46.43
24230;BME280;12362;50.004;8.006;2022-07-04T07:32:40;100870.44;;;28.22;45.39
24230;BME280;12362;50.004;8.006;2022-07-04T07:35:05;100873.47;;;28.19;48.46
24230;BME280;12362;50.004;8.006;2022-07-04T07:37:31;100867.69;;;28.38;46.00
24230;BME280;12362;50.004;8.006;2022-07-04T07:39:56;100868.50;;;28.69;47.90
24230;BME280;12362;50.004;8.006;2022-07-04T07:42:25;100865.81;;;28.69;45.05
24230;BME280;12362;50.004;8.006;2022-07-04T07:44:50;100866.03;;;28.37;46.93
24230;BME280;12362;50.004;8.006;2022-07-04T07:47:16;100860.44;;;29.14;45.11
24230;BME280;12362;50.004;8.006;2022-07-04T07:49:42;100863.31;;;29.27;45.75
24230;BME280;12362;50.004;8.006;2022-07-04T07:52:08;100857.88;;;29.35;42.25
24230;BME280;12362;50.004;8.006;2022-07-04T07:54:33;100862.38;;;29.20;42.97
24230;BME280;12362;50.004;8.006;2022-07-04T07:56:59;100856.69;;;29.80;44.44
24230;BME280;12362;50.004;8.006;2022-07-04T07:59:24;100852.81;;;30.33;41.42
24230;BME280;12362;50.004;8.006;2022-07-04T08:01:49;100862.97;;;29.73;41.26
24230;BME280;12362;50.004;8.006;2022-07-04T08:04:15;100859.25;;;30.32;39.94
24230;BME280;12362;50.004;8.006;2022-07-04T08:06:59;100851.72;;;29.63;38.10
24230;BME280;12362;50.004;8.006;2022-07-04T08:09:24;100853.03;;;29.53;39.14
24230;BME280;12362;50.004;8.006;2022-07-04T08:11:50;100849.34;;;29.54;41.86
24230;BME280;12362;50.004;8.006;2022-07-04T08:14:15;100839.28;;;30.55;40.64
24230;BME280;12362;50.004;8.006;2022-07-04T08:16:41;100841.00;;;31.04;39.65
24230;BME280;12362;50.004;8.006;2022-07-04T08:19:06;100845.72;;;30.40;36.10
24230;BME280;12362;50.004;8.006;2022-07-04T08:21:31;100838.50;;;30.05;40.11
24230;BME280;12362;50.004;8.006;2022-07-04T08:23:57;100833.53;;;30.37;39.21
24230;BME280;12362;50.004;8.006;2022-07-04T08:26:22;100826.31;;;29.88;40.20
24230;BME280;12362;50.004;8.006;2022-07-04T08:28:48;100832.88;;;28.68;40.81
24230;BME280;12362;50.004;8.006;2022-07-04T08:31:13;100829.66;;;29.47;42.16
24230;BME280;12362;50.004;8.006;2022-07-04T08:33:38;100833.31;;;30.03;38.64
24230;BME280;12362;50.004;8.006;2022-07-04T08:36:04;100837.50;;;28.97;40.60
24230;BME280;12362;50.004;8.006;2022-07-04T08:38:30;100828.44;;;29.35;40.42
24230;BME280;12362;50.004;8.006;2022-07-04T08:40:59;100833.09;;;29.55;38.47
24230;BME280;12362;50.004;8.006;2022-07-04T08:43:27;100828.81;;;29.75;38.57
24230;BME280;12362;50.004;8.006;2022-07-04T08:45:59;100823.94;;;29.50;39.31
24230;BME280;12362;50.004;8.006;2022-07-04T08:48:25;100821.44;;;30.68;38.19
24230;BME280;12362;50.004;8.006;2022-07-04T08:50:55;100823.38;;;29.83;36.52
24230;BME280;12362;50.004;8.006;2022-07-04T08:53:27;100825.44;;;29.01;36.43
24230;BME280;12362;50.004;8.006;2022-07-04T08:55:55;100829.94;;;28.63;41.32
24230;BME280;12362;50.004;8.006;2022-07-04T08:58:40;100831.09;;;28.61;39.11
24230;BME280;12362;50.004;8.006;2022-07-04T09:01:08;100824.91;;;29.20;39.25
24230;BME280;12362;50.004;8.006;2022-07-04T09:03:40;100823.28;;;29.76;39.83
24230;BME280;12362;50.004;8.006;2022-07-04T09:06:06;100815.78;;;30.78;38.32
24230;BME280;12362;50.004;8.006;2022-07-04T09:08:31;100800.13;;;31.36;35.54
24230;BME280;12362;50.004;8.006;2022-07-04T09:10:56;100809.34;;;32.01;37.40
24230;BME280;12362;50.004;8.006;2022-07-04T09:13:22;100795.59;;;32.49;34.08
24230;BME280;12362;50.004;8.006;2022-07-04T09:15:49;100806.63;;;31.54;35.80
24230;BME280;12362;50.004;8.006;2022-07-04T09:18:42;100799.66;;;31.33;35.30
24230;BME280;12362;50.004;8.006;2022-07-04T09:21:08;100813.53;;;30.04;35.83
24230;BME280;12362;50.004;8.006;2022-07-04T09:23:41;100823.81;;;28.77;37.11
24230;BME280;12362;50.004;8.006;2022-07-04T09:26:15;100809.31;;;29.09;36.77
24230;BME280;12362;50.004;8.006;2022-07-04T09:28:52;100787.72;;;31.35;36.15
24230;BME280;12362;50.004;8.006;2022-07-04T09:31:20;100786.59;;;31.17;36.04
24230;BME280;12362;50.004;8.006;2022-07-04T09:36:21;100792.91;;;30.19;37.89
24230;BME280;12362;50.004;8.006;2022-07-04T09:39:07;100795.28;;;29.07;36.57
24230;BME280;12362;50.004;8.006;2022-07-04T09:44:15;100787.53;;;28.97;35.82
24230;BME280;12362;50.004;8.006;2022-07-04T09:46:40;100781.94;;;29.50;37.34
24230;BME280;12362;50.004;8.006;2022-07-04T09:49:06;100778.75;;;30.67;34.33
24230;BME280;12362;50.004;8.006;2022-07-04T09:51:43;100784.63;;;30.56;38.17
24230;BME280;12362;50.004;8.006;2022-07-04T09:54:19;100769.72;;;31.29;34.95
24230;BME280;12362;50.004;8.006;2022-07-04T09:56:48;100764.63;;;31.87;32.94
24230;BME280;12362;50.004;8.006;2022-07-04T09:59:14;100763.09;;;32.12;32.98
24230;BME280;12362;50.004;8.006;2022-07-04T10:01:39;100771.41;;;31.37;31.20
24230;BME280;12362;50.004;8.006;2022-07-04T10:04:06;100766.28;;;30.39;34.15
24230;BME280;12362;50.004;8.006;2022-07-04T10:06:33;100761.94;;;31.41;32.06
24230;BME280;12362;50.004;8.006;2022-07-04T10:09:13;100762.94;;;31.33;32.73
24230;BME280;12362;50.004;8.006;2022-07-04T10:11:41;100763.53;;;32.42;32.68
24230;BME280;12362;50.004;8.006;2022-07-04T10:14:09;100781.28;;;30.12;35.13
24230;BME280;12362;50.004;8.006;2022-07-04T10:16:36;100770.63;;;31.09;31.63
24230;BME280;12362;50.004;8.006;2022-07-04T10:19:02;100764.81;;;31.86;30.06
24230;BME280;12362;50.004;8.006;2022-07-04T10:21:28;100775.22;;;30.25;34.30
24230;BME280;12362;50.004;8.006;2022-07-04T10:23:54;100789.63;;;28.87;33.83
24230;BME280;12362;50.004;8.006;2022-07-04T10:26:21;100786.81;;;30.11;35.22
24230;BME280;12362;50.004;8.006;2022-07-04T10:28:48;100783.13;;;30.33;31.96
24230;BME280;12362;50.004;8.006;2022-07-04T10:31:14;100792.59;;;28.92;33.77
24230;BME280;12362;50.004;8.006;2022-07-04T10:33:41;100800.44;;;29.08;34.72
24230;BME280;12362;50.004;8.006;2022-07-04T10:36:17;100800.25;;;29.10;32.49
24230;BME280;12362;50.004;8.006;2022-07-04T10:38:54;100802.53;;;30.14;33.55
24230;BME280;12362;50.004;8.006;2022-07-04T10:41:20;100795.94;;;30.52;33.65
24230;BME280;12362;50.004;8.006;2022-07-04T10:43:59;100804.06;;;30.23;32.24
24230;BME280;12362;50.004;8.006;2022-07-04T10:46:28;100804.25;;;29.71;33.40
24230;BME280;12362;50.004;8.006;2022-07-04T10:48:56;100793.34;;;31.13;30.89
24230;BME280;12362;50.004;8.006;2022-07-04T10:51:48;100794.63;;;30.48;32.39
24230;BME280;12362;50.004;8.006;2022-07-04T10:54:32;100790.06;;;30.90;34.77
24230;BME280;12362;50.004;8.006;2022-07-04T10:57:21;100797.91;;;29.44;33.27
24230;BME280;12362;50.004;8.006;2022-07-04T11:05:06;100778.34;;;31.25;31.76
24230;BME280;12362;50.004;8.006;2022-07-04T11:17:51;100767.44;;;32.45;30.88
24230;BME280;12362;50.004;8.006;2022-07-04T11:20:17;100767.09;;;32.81;31.16
24230;BME280;12362;50.004;8.006;2022-07-04T11:22:43;100762.31;;;33.02;28.78
24230;BME280;12362;50.004;8.006;2022-07-04T11:25:10;100756.28;;;33.07;30.24
24230;BME280;12362;50.004;8.006;2022-07-04T11:27:36;100759.78;;;33.20;29.31
24230;BME280;12362;50.004;8.006;2022-07-04T11:30:02;100758.78;;;32.95;30.19
24230;BME280;12362;50.004;8.006;2022-07-04T11:32:31;100748.03;;;32.63;30.56
24230;BME280;12362;50.004;8.006;2022-07-04T11:34:57;100758.53;;;32.19;31.38
24230;BME280;12362;50.004;8.006;2022-07-04T11:37:23;100752.88;;;31.48;29.80
24230;BME280;12362;50.004;8.006;2022-07-04T11:39:55;100749.50;;;31.73;31.09
24230;BME280;12362;50.004;8.006;2022-07-04T11:43:03;100745.34;;;32.44;31.53
24230;BME280;12362;50.004;8.006;2022-07-04T11:45:47;100731.91;;;33.52;31.22
24230;BME280;12362;50.004;8.006;2022-07-04T11:48:23;100734.16;;;33.68;30.39
24230;BME280;12362;50.004;8.006;2022-07-04T11:50:49;100733.28;;;33.80;30.99
24230;BME280;12362;50.004;8.006;2022-07-04T11:53:16;100724.63;;;33.59;30.84
24230;BME280;12362;50.004;8.006;2022-07-04T11:55:55;100726.94;;;33.99;29.43
24230;BME280;12362;50.004;8.006;2022-07-04T11:58:21;100743.38;;;31.12;30.83
24230;BME280;12362;50.004;8.006;2022-07-04T12:00:47;100727.88;;;32.07;30.87
24230;BME280;12362;50.004;8.006;2022-07-04T12:03:12;100723.25;;;33.43;29.58
24230;BME280;12362;50.004;8.006;2022-07-04T12:05:38;100722.38;;;32.67;31.24
24230;BME280;12362;50.004;8.006;2022-07-04T12:08:04;100729.38;;;32.23;31.81
24230;BME280;12362;50.004;8.006;2022-07-04T12:10:34;100725.59;;;33.27;31.53
24230;BME280;12362;50.004;8.006;2022-07-04T12:13:14;100719.91;;;33.48;29.87
24230;BME280;12362;50.004;8.006;2022-07-04T12:15:50;100717.66;;;33.89;29.41
24230;BME280;12362;50.004;8.006;2022-07-04T12:18:29;100724.69;;;33.90;30.35
24230;BME280;12362;50.004;8.006;2022-07-04T12:21:11;100725.44;;;33.66;28.44
24230;BME280;12362;50.004;8.006;2022-07-04T12:23:38;100717.84;;;34.25;29.12
24230;BME280;12362;50.004;8.006;2022-07-04T12:26:05;100710.06;;;35.08;29.80
24230;BME280;12362;50.004;8.006;2022-07-04T12:28:37;100706.53;;;35.07;27.67
24230;BME280;12362;50.004;8.006;2022-07-04T12:31:02;100722.94;;;33.14;28.05
24230;BME280;12362;50.004;8.006;2022-07-04T12:33:29;100720.13;;;33.46;28.95
24230;BME280;12362;50.004;8.006;2022-07-04T12:35:56;100721.31;;;32.29;30.44
24230;BME280;12362;50.004;8.006;2022-07-04T12:40:57;100718.09;;;31.80;30.23
24230;BME280;12362;50.004;8.006;2022-07-04T12:43:25;100719.75;;;30.04;31.67
24230;BME280;12362;50.004;8.006;2022-07-04T12:45:55;100722.06;;;30.07;33.39
24230;BME280;12362;50.004;8.006;2022-07-04T12:48:28;100704.13;;;32.24;31.18
24230;BME280;12362;50.004;8.006;2022-07-04T12:51:07;100695.34;;;33.75;30.26
24230;BME280;12362;50.004;8.006;2022-07-04T12:53:38;100693.09;;;33.22;29.71
24230;BME280;12362;50.004;8.006;2022-07-04T12:56:05;100702.72;;;32.66;31.42
24230;BME280;12362;50.004;8.006;2022-07-04T12:58:30;100691.94;;;32.73;30.19
24230;BME280;12362;50.004;8.006;2022-07-04T13:00:56;100690.41;;;31.80;29.43
24230;BME280;12362;50.004;8.006;2022-07-04T13:03:21;100692.53;;;32.75;30.72
24230;BME280;12362;50.004;8.006;2022-07-04T13:05:48;100689.88;;;33.44;28.68
24230;BME280;12362;50.004;8.006;2022-07-04T13:08:14;100688.00;;;33.45;29.22
24230;BME280;12362;50.004;8.006;2022-07-04T13:10:39;100685.78;;;33.79;27.88